Airfield :







YOU CAN JOIN US ON...

 
LOGIN :

Register | Disclaimer

   EN    FR    IT 

 









Legend :    VFR   Marginal VFR   IFR   Intensive IFR   Very Intensive IFR
Visi :
Ceiling :
>= 8 km
>= 3000ft
5 to 8 km
1000 to 3000 ft
1500m to 5 km
500 to 1000 ft
800 to 1500m
200 to 500 ft
< 800m
< 200 ft
Symbols :   Thunderstorms  Fog  Heavy snow  Heavy precipitations  Wind > 20 kt






- Airport Elevation : 232 ft
- IATA code : YQM


CYQM - Greater Moncton International

CURRENT METAR :
  • 051900Z VRB02KT 2 1/2SM -SN SCT007 OVC017 M00/M02 A2942 RMK SF4SC4 SLP968

EXPIRED METARs :
  • 051800Z 00000KT 2 1/2SM -SN OVC024 M01/M02 A2941 RMK SC8 SLP965
  • 051700Z 19003KT 2SM -SN OVC021 M01/M02 A2942 RMK SC8 /S02/ SLP967
  • 051600Z 22004KT 2SM -SN OVC032 M01/M02 A2943 RMK SC8 SLP971

TAF TAF CYQM
Valid from the 05 at 18:00 until the 06 at 18:00 UTC


051738Z 0518/0618 22005KT P6SM -SN OVC030
TEMPO 0518/0520 21/2SM -SN OVC020
FM052000 26007KT P6SM SCT015 BKN070
TEMPO 0520/0524 4SM -SN BKN015 OVC070
FM060000 26010KT P6SM FEW012 BKN070
TEMPO 0600/0611 BKN012
FM061100 27010G20KT P6SM BKN025
TEMPO 0611/0616 BKN015 RMK NXT FCST BY 060000Z



MET'MAP, your aeronautical weather chart ! - Copyright ORBIFLY December 2007 - Disclaimer

ORBIFLY MET'MAP TEAM :

Programming & Development : Alexandra Zaïnal
Concept & original design : Baudouin d'Aumeries
Assistance for programming : Marc-Olivier Méhu
Technical & hardware support : Manuel Goepfert

Contact : metmap@orbifly.com




SOURCES & CREDITS :

   NOAA